createdAt,value
2023-04-17T00:01:24.028Z,95.24
2023-04-17T00:03:54.691Z,95.71
2023-04-17T00:06:24.177Z,95.88
2023-04-17T00:08:52.138Z,95.43
2023-04-17T00:11:21.156Z,95.04
2023-04-17T00:13:51.803Z,95.40
2023-04-17T00:16:20.160Z,95.44
2023-04-17T00:18:48.091Z,93.19
2023-04-17T00:21:17.555Z,93.77
2023-04-17T00:23:45.954Z,93.89
2023-04-17T00:26:13.780Z,93.10
2023-04-17T00:28:43.944Z,92.70
2023-04-17T00:31:12.486Z,91.81
2023-04-17T00:33:42.953Z,92.34
2023-04-17T00:36:13.508Z,92.86
2023-04-17T00:38:43.154Z,93.03
2023-04-17T00:41:11.683Z,91.72
2023-04-17T00:43:40.985Z,94.25
2023-04-17T00:46:11.329Z,93.53
2023-04-17T00:48:41.010Z,93.21
2023-04-17T00:51:09.447Z,93.07
2023-04-17T00:53:39.004Z,93.05
2023-04-17T00:56:09.351Z,92.89
2023-04-17T00:58:38.570Z,92.44
2023-04-17T01:01:07.458Z,91.86
2023-04-17T01:03:36.524Z,93.05
2023-04-17T01:06:07.741Z,94.51
2023-04-17T01:08:43.713Z,93.88
2023-04-17T01:11:13.637Z,93.07
2023-04-17T01:13:46.622Z,93.14
2023-04-17T01:16:15.054Z,94.01
2023-04-17T01:18:43.328Z,94.45
2023-04-17T01:21:11.678Z,93.65
2023-04-17T01:24:10.920Z,92.67
2023-04-17T01:26:39.865Z,92.43
2023-04-17T01:29:08.204Z,92.41
2023-04-17T01:31:36.302Z,91.12
2023-04-17T01:34:04.145Z,91.27
2023-04-17T01:36:33.044Z,90.85
2023-04-17T01:39:00.988Z,90.52
2023-04-17T01:41:30.521Z,90.43
2023-04-17T01:43:58.647Z,90.55
2023-04-17T01:46:27.400Z,90.48
2023-04-17T01:49:01.750Z,90.79
2023-04-17T01:51:29.985Z,91.49
2023-04-17T01:54:02.548Z,91.54
2023-04-17T01:56:32.237Z,91.48
2023-04-17T01:59:00.444Z,90.93
2023-04-17T02:01:28.564Z,91.64
2023-04-17T02:03:57.387Z,90.99
2023-04-17T02:06:26.924Z,90.96
2023-04-17T02:08:55.322Z,90.71
2023-04-17T02:11:23.317Z,90.29
2023-04-17T02:13:53.569Z,90.23
2023-04-17T02:16:22.741Z,89.93
2023-04-17T02:18:51.440Z,89.86
2023-04-17T02:21:19.579Z,89.84
2023-04-17T02:23:50.132Z,89.70
2023-04-17T02:26:18.420Z,90.15
2023-04-17T02:28:46.652Z,90.06
2023-04-17T02:31:16.461Z,90.22
2023-04-17T02:33:47.285Z,90.41
2023-04-17T02:36:16.229Z,90.46
2023-04-17T02:38:45.929Z,90.33
2023-04-17T02:41:14.764Z,90.33
2023-04-17T02:43:42.708Z,89.98
2023-04-17T02:46:11.619Z,90.16
2023-04-17T02:48:41.201Z,89.82
2023-04-17T02:51:09.261Z,89.56
2023-04-17T02:53:39.524Z,89.19
2023-04-17T02:56:07.902Z,88.55
2023-04-17T02:58:37.569Z,88.66
2023-04-17T03:01:07.958Z,88.42
2023-04-17T03:03:42.685Z,88.41
2023-04-17T03:06:14.813Z,87.91
2023-04-17T03:08:43.488Z,87.27
2023-04-17T03:11:11.620Z,88.40
2023-04-17T03:13:39.863Z,87.75
2023-04-17T03:16:08.408Z,88.29
2023-04-17T03:18:42.466Z,88.68
2023-04-17T03:21:10.792Z,88.62
2023-04-17T03:23:38.989Z,88.16
2023-04-17T03:26:09.088Z,90.29
2023-04-17T03:28:37.892Z,92.01
2023-04-17T03:31:06.489Z,92.70
2023-04-17T03:33:37.862Z,93.20
2023-04-17T03:36:08.207Z,95.05
2023-04-17T03:38:39.260Z,93.88
2023-04-17T03:41:10.150Z,93.08
2023-04-17T03:43:38.374Z,94.79
2023-04-17T03:46:10.963Z,94.27
2023-04-17T03:48:39.919Z,94.51
2023-04-17T03:51:09.298Z,94.59
2023-04-17T03:53:38.522Z,93.64
2023-04-17T03:56:10.078Z,93.43
2023-04-17T03:58:41.976Z,93.31
2023-04-17T04:01:14.765Z,92.96
2023-04-17T04:03:59.162Z,92.01
2023-04-17T04:06:30.023Z,92.59
2023-04-17T04:08:58.992Z,93.85
2023-04-17T04:11:27.158Z,93.44
2023-04-17T04:13:55.943Z,93.62
2023-04-17T04:16:23.868Z,93.46
2023-04-17T04:18:55.577Z,93.52
2023-04-17T04:21:24.302Z,92.96
2023-04-17T04:23:53.675Z,93.58
2023-04-17T04:26:24.402Z,91.69
2023-04-17T04:28:56.625Z,92.02
2023-04-17T04:31:50.832Z,92.00
2023-04-17T04:34:25.317Z,92.66
2023-04-17T04:36:55.337Z,92.34
2023-04-17T04:39:41.223Z,92.73
2023-04-17T04:42:11.323Z,91.84
2023-04-17T04:44:53.363Z,91.57
2023-04-17T04:47:23.084Z,92.52
2023-04-17T04:49:52.151Z,93.04
2023-04-17T04:52:22.843Z,93.45
2023-04-17T04:54:55.793Z,93.94
2023-04-17T04:57:24.699Z,93.49
2023-04-17T04:59:56.269Z,94.34
2023-04-17T05:02:32.942Z,93.87
2023-04-17T05:05:02.017Z,94.71
2023-04-17T05:07:33.316Z,94.50
2023-04-17T05:10:03.634Z,95.76
2023-04-17T05:12:36.067Z,94.18
2023-04-17T05:15:08.213Z,94.43
2023-04-17T05:17:36.522Z,93.76
2023-04-17T05:20:06.812Z,95.15
2023-04-17T05:22:37.805Z,95.12
2023-04-17T05:25:12.165Z,95.41
2023-04-17T05:27:40.476Z,95.11
2023-04-17T05:30:10.177Z,94.47
2023-04-17T05:32:38.196Z,95.57
2023-04-17T05:35:27.998Z,95.65
2023-04-17T05:37:56.844Z,94.07
2023-04-17T05:40:26.702Z,94.53
2023-04-17T05:42:54.757Z,92.78
2023-04-17T05:45:24.953Z,94.34
2023-04-17T05:47:53.741Z,95.17
2023-04-17T05:50:22.058Z,94.62
2023-04-17T05:52:50.453Z,95.62
2023-04-17T05:55:20.293Z,94.87
2023-04-17T05:57:53.428Z,95.16
2023-04-17T06:00:23.195Z,95.80
2023-04-17T06:02:57.301Z,96.46
2023-04-17T06:05:43.407Z,97.23
2023-04-17T06:08:11.289Z,96.72
2023-04-17T06:10:39.136Z,97.05
2023-04-17T06:13:08.499Z,98.24
2023-04-17T06:15:37.224Z,97.46
2023-04-17T06:18:05.511Z,96.04
2023-04-17T06:20:33.395Z,96.24
2023-04-17T06:23:03.592Z,97.06
2023-04-17T06:25:31.834Z,97.24
2023-04-17T06:27:59.698Z,95.99
2023-04-17T06:30:29.001Z,96.03
2023-04-17T06:32:58.521Z,96.37
2023-04-17T06:35:26.617Z,96.14
2023-04-17T06:38:00.395Z,97.55
2023-04-17T06:40:28.542Z,97.32
2023-04-17T06:42:57.295Z,96.55
2023-04-17T06:45:30.415Z,95.96
2023-04-17T06:47:58.343Z,96.55
2023-04-17T06:50:26.438Z,96.70
2023-04-17T06:52:54.706Z,98.18
2023-04-17T06:55:22.637Z,99.08
2023-04-17T06:57:50.464Z,96.71
2023-04-17T07:00:19.585Z,96.16
2023-04-17T07:02:49.403Z,97.78
2023-04-17T07:05:17.541Z,97.11
2023-04-17T07:07:45.418Z,99.81
2023-04-17T07:10:15.873Z,98.20
2023-04-17T07:12:43.951Z,97.45
2023-04-17T07:15:12.560Z,96.73
2023-04-17T07:17:40.556Z,97.96
2023-04-17T07:20:11.024Z,98.83
2023-04-17T07:22:38.987Z,97.46
2023-04-17T07:25:08.399Z,99.08
2023-04-17T07:27:38.376Z,99.10
2023-04-17T07:30:08.678Z,98.71
2023-04-17T07:32:37.529Z,98.93
2023-04-17T07:35:06.501Z,98.07
2023-04-17T07:37:37.154Z,97.13
2023-04-17T07:40:10.340Z,97.54
2023-04-17T07:42:38.424Z,96.98
2023-04-17T07:45:07.331Z,97.04
2023-04-17T07:47:35.381Z,95.74
2023-04-17T07:50:03.667Z,95.13
2023-04-17T07:52:31.826Z,96.30
2023-04-17T07:55:02.057Z,97.47
2023-04-17T07:57:30.172Z,98.24
2023-04-17T07:59:58.192Z,95.95
2023-04-17T08:02:26.828Z,94.11
2023-04-17T08:04:55.595Z,93.55
2023-04-17T08:07:27.118Z,94.02
2023-04-17T08:09:55.551Z,93.25
2023-04-17T08:12:25.092Z,91.99
2023-04-17T08:14:52.939Z,92.94
2023-04-17T08:17:23.002Z,93.14
2023-04-17T08:19:53.736Z,93.15
2023-04-17T08:22:24.115Z,91.96
2023-04-17T08:24:54.717Z,91.64
2023-04-17T08:27:24.470Z,93.21
2023-04-17T08:29:55.919Z,91.65
2023-04-17T08:32:24.376Z,90.94
2023-04-17T08:34:52.614Z,90.33
2023-04-17T08:37:20.842Z,91.87
2023-04-17T08:39:52.863Z,92.59
2023-04-17T08:42:21.311Z,93.23
2023-04-17T08:44:51.603Z,92.06
2023-04-17T08:47:19.781Z,93.64
2023-04-17T08:49:50.626Z,91.86
2023-04-17T08:52:19.072Z,91.51
2023-04-17T08:54:49.856Z,91.57
2023-04-17T08:57:19.039Z,92.15
2023-04-17T08:59:47.606Z,91.20
2023-04-17T09:02:18.105Z,91.92
2023-04-17T09:04:47.326Z,93.92
2023-04-17T09:07:16.669Z,93.16
2023-04-17T09:09:52.040Z,95.51
2023-04-17T09:12:22.154Z,93.18
2023-04-17T09:14:50.150Z,94.16
2023-04-17T09:17:21.665Z,93.92
2023-04-17T09:20:06.421Z,92.80
2023-04-17T09:22:35.995Z,92.28
2023-04-17T09:25:04.669Z,90.64
2023-04-17T09:27:32.648Z,89.87
2023-04-17T09:30:02.618Z,90.00
2023-04-17T09:32:33.504Z,89.19
2023-04-17T09:35:04.043Z,88.21
2023-04-17T09:37:49.335Z,89.34
2023-04-17T09:40:19.278Z,87.88
2023-04-17T09:43:00.376Z,88.67
2023-04-17T09:45:33.589Z,87.85
2023-04-17T09:48:05.984Z,88.79
2023-04-17T09:50:36.611Z,88.03
2023-04-17T09:53:07.190Z,88.60
2023-04-17T09:55:37.710Z,87.94
2023-04-17T09:58:08.485Z,89.06
2023-04-17T10:00:37.816Z,88.10
2023-04-17T10:03:08.468Z,86.51
2023-04-17T10:05:36.802Z,86.03
2023-04-17T10:08:05.725Z,84.51
2023-04-17T10:10:36.398Z,84.97
2023-04-17T10:13:08.183Z,81.92
2023-04-17T10:15:39.572Z,82.62
2023-04-17T10:18:23.233Z,79.44
2023-04-17T10:20:53.836Z,81.54
2023-04-17T10:23:35.530Z,81.19
2023-04-17T10:26:43.010Z,76.26
2023-04-17T10:29:13.026Z,78.15
2023-04-17T10:32:28.920Z,77.87
2023-04-17T10:35:00.883Z,76.40
2023-04-17T10:38:03.597Z,77.27
2023-04-17T10:40:33.677Z,77.80
2023-04-17T10:43:08.180Z,76.78
2023-04-17T10:45:57.633Z,75.63
2023-04-17T10:48:33.300Z,73.60
2023-04-17T10:51:44.526Z,73.59
2023-04-17T10:54:15.856Z,76.12
2023-04-17T10:56:48.884Z,77.31
2023-04-17T10:59:19.000Z,73.01
2023-04-17T11:02:01.221Z,73.22
2023-04-17T11:04:31.259Z,73.15
2023-04-17T11:07:02.072Z,75.50
2023-04-17T11:09:36.359Z,74.74
2023-04-17T11:12:21.060Z,73.90
2023-04-17T11:15:10.115Z,72.48
2023-04-17T11:17:48.191Z,71.68
2023-04-17T11:20:32.447Z,75.18
2023-04-17T11:23:05.291Z,74.09
2023-04-17T11:25:38.644Z,74.62
2023-04-17T11:28:08.129Z,73.80
2023-04-17T11:30:40.773Z,74.66
2023-04-17T11:33:10.280Z,75.66
2023-04-17T11:35:40.960Z,73.00
2023-04-17T11:38:17.862Z,72.50
2023-04-17T11:40:50.364Z,73.91
2023-04-17T11:43:19.937Z,76.41
2023-04-17T11:45:50.435Z,76.43
2023-04-17T11:48:26.408Z,78.24
2023-04-17T11:51:13.906Z,77.94
2023-04-17T11:53:56.211Z,78.67
2023-04-17T11:56:36.478Z,76.97
2023-04-17T11:59:06.381Z,76.35
2023-04-17T12:01:35.408Z,77.65
2023-04-17T12:04:20.860Z,75.86
2023-04-17T12:06:51.048Z,75.06
2023-04-17T12:09:24.839Z,75.65
2023-04-17T12:11:56.963Z,74.83
2023-04-17T12:14:50.800Z,75.58
2023-04-17T12:17:19.780Z,74.16
2023-04-17T12:19:48.259Z,74.56
2023-04-17T12:22:17.091Z,75.13
2023-04-17T12:24:47.308Z,74.00
2023-04-17T12:27:17.137Z,73.73
2023-04-17T12:29:45.635Z,76.46
2023-04-17T12:32:16.014Z,73.04
2023-04-17T12:34:44.385Z,74.04
2023-04-17T12:37:13.072Z,74.01
2023-04-17T12:39:42.212Z,74.79
2023-04-17T12:42:12.467Z,77.95
2023-04-17T12:44:40.600Z,79.70
2023-04-17T12:47:10.597Z,77.44
2023-04-17T12:49:40.143Z,77.63
2023-04-17T12:52:08.984Z,77.61
2023-04-17T12:54:40.803Z,78.10
2023-04-17T12:57:13.049Z,77.54
2023-04-17T12:59:42.526Z,77.34
2023-04-17T13:02:15.180Z,76.45
2023-04-17T13:04:56.767Z,77.00
2023-04-17T13:07:32.206Z,75.70
2023-04-17T13:10:03.968Z,75.70
2023-04-17T13:12:34.458Z,76.39
2023-04-17T13:15:03.277Z,75.69
2023-04-17T13:17:32.513Z,74.82
2023-04-17T13:20:09.554Z,75.62
2023-04-17T13:22:38.962Z,74.85
2023-04-17T13:25:08.229Z,73.95
2023-04-17T13:27:38.331Z,74.28
2023-04-17T13:30:09.345Z,73.31
2023-04-17T13:32:39.669Z,72.50
2023-04-17T13:35:10.225Z,73.40
2023-04-17T13:37:38.481Z,71.77
2023-04-17T13:40:10.213Z,71.30
2023-04-17T13:42:40.826Z,71.19
2023-04-17T13:45:10.117Z,69.83
2023-04-17T13:47:38.965Z,68.99
2023-04-17T13:50:08.748Z,69.77
2023-04-17T13:52:37.365Z,68.89
2023-04-17T13:55:08.308Z,69.21
2023-04-17T13:57:37.048Z,68.78
2023-04-17T14:00:08.229Z,67.98
2023-04-17T14:02:36.869Z,69.26
2023-04-17T14:05:05.906Z,67.62
2023-04-17T14:07:34.592Z,68.12
2023-04-17T14:10:02.801Z,67.36
2023-04-17T14:12:31.455Z,68.03
2023-04-17T14:14:59.867Z,67.79
2023-04-17T14:17:30.220Z,68.69
2023-04-17T14:19:59.003Z,67.73
2023-04-17T14:22:26.900Z,68.08
2023-04-17T14:24:55.716Z,68.69
2023-04-17T14:27:23.740Z,69.20
2023-04-17T14:29:51.998Z,69.17
2023-04-17T14:32:20.475Z,68.13
2023-04-17T14:34:53.346Z,68.30
2023-04-17T14:37:21.575Z,69.78
2023-04-17T14:39:50.647Z,68.92
2023-04-17T14:42:19.778Z,67.85
2023-04-17T14:44:47.822Z,67.96
2023-04-17T14:47:16.409Z,68.91
2023-04-17T14:49:46.029Z,68.63
2023-04-17T14:52:15.348Z,69.03
2023-04-17T14:54:43.238Z,69.89
2023-04-17T14:57:11.905Z,70.33
2023-04-17T14:59:40.118Z,69.93
2023-04-17T15:02:08.656Z,69.95
2023-04-17T15:04:36.755Z,69.66
2023-04-17T15:07:04.905Z,69.79
2023-04-17T15:09:34.127Z,70.02
2023-04-17T15:12:02.680Z,69.26
2023-04-17T15:14:31.266Z,70.68
2023-04-17T15:17:02.784Z,70.32
2023-04-17T15:19:31.599Z,70.09
2023-04-17T15:21:59.560Z,69.43
2023-04-17T15:24:27.819Z,70.10
2023-04-17T15:26:57.294Z,68.92
2023-04-17T15:29:25.314Z,68.86
2023-04-17T15:31:53.476Z,68.19
2023-04-17T15:34:21.473Z,69.79
2023-04-17T15:36:49.495Z,69.00
2023-04-17T15:39:17.652Z,70.35
2023-04-17T15:41:46.627Z,69.42
2023-04-17T15:44:16.165Z,70.87
2023-04-17T15:46:46.994Z,70.05
2023-04-17T15:49:16.275Z,70.58
2023-04-17T15:51:44.793Z,71.07
2023-04-17T15:54:12.876Z,70.37
2023-04-17T15:56:41.309Z,70.13
2023-04-17T15:59:09.289Z,70.52
2023-04-17T16:01:38.719Z,70.64
2023-04-17T16:04:07.322Z,70.80
2023-04-17T16:06:35.685Z,70.17
2023-04-17T16:09:04.313Z,71.64
2023-04-17T16:11:32.245Z,71.58
2023-04-17T16:14:00.335Z,72.34
2023-04-17T16:16:29.379Z,70.51
2023-04-17T16:18:59.044Z,71.05
2023-04-17T16:21:27.983Z,71.48
2023-04-17T16:23:57.434Z,72.07
2023-04-17T16:26:25.777Z,72.82
2023-04-17T16:28:53.734Z,72.34
2023-04-17T16:31:25.949Z,70.97
2023-04-17T16:33:54.129Z,72.07
2023-04-17T16:36:25.928Z,71.97
2023-04-17T16:38:54.137Z,71.94
2023-04-17T16:41:22.489Z,71.82
2023-04-17T16:43:51.899Z,72.29
2023-04-17T16:46:28.700Z,72.67
2023-04-17T16:49:11.694Z,72.58
2023-04-17T16:51:41.527Z,72.36
2023-04-17T16:54:09.592Z,72.25
2023-04-17T16:56:38.927Z,72.04
2023-04-17T16:59:07.161Z,71.21
2023-04-17T17:01:35.208Z,72.14
2023-04-17T17:04:03.445Z,72.81
2023-04-17T17:06:32.407Z,72.91
2023-04-17T17:09:02.176Z,73.05
2023-04-17T17:11:30.480Z,73.27
2023-04-17T17:13:58.769Z,73.46
2023-04-17T17:16:27.726Z,73.51
2023-04-17T17:18:56.655Z,73.58
2023-04-17T17:21:24.855Z,73.40
2023-04-17T17:23:53.367Z,73.22
2023-04-17T17:26:23.617Z,73.18
2023-04-17T17:28:53.478Z,73.59
2023-04-17T17:31:22.622Z,74.13
2023-04-17T17:33:54.127Z,74.22
2023-04-17T17:36:23.067Z,74.34
2023-04-17T17:38:56.089Z,74.27
2023-04-17T17:41:25.933Z,75.29
2023-04-17T17:43:56.407Z,75.43
2023-04-17T17:46:25.443Z,75.26
2023-04-17T17:48:54.142Z,75.40
2023-04-17T17:51:25.763Z,74.83
2023-04-17T17:53:55.400Z,74.91
2023-04-17T17:56:25.196Z,75.46
2023-04-17T17:58:53.680Z,75.21
2023-04-17T18:01:23.746Z,75.40
2023-04-17T18:03:53.323Z,76.01
2023-04-17T18:06:22.205Z,76.03
2023-04-17T18:08:50.453Z,75.65
2023-04-17T18:11:18.497Z,75.89
2023-04-17T18:13:48.009Z,76.07
2023-04-17T18:16:16.237Z,76.56
2023-04-17T18:18:44.616Z,76.56
2023-04-17T18:21:13.397Z,76.80
2023-04-17T18:23:47.221Z,76.69
2023-04-17T18:26:18.422Z,76.66
2023-04-17T18:29:36.624Z,77.07
2023-04-17T18:32:06.550Z,77.91
2023-04-17T18:34:35.297Z,77.67
2023-04-17T18:37:10.443Z,78.01
2023-04-17T18:39:50.360Z,78.59
2023-04-17T18:42:18.859Z,78.71
2023-04-17T18:44:50.001Z,79.15
2023-04-17T18:47:19.959Z,78.65
2023-04-17T18:50:00.942Z,78.82
2023-04-17T18:52:51.231Z,78.24
2023-04-17T18:55:20.224Z,78.65
2023-04-17T18:57:57.441Z,78.73
2023-04-17T19:00:46.281Z,79.12
2023-04-17T19:03:16.148Z,78.60
2023-04-17T19:05:44.501Z,78.21
2023-04-17T19:08:14.987Z,78.76
2023-04-17T19:10:43.174Z,78.54
2023-04-17T19:13:11.257Z,78.60
2023-04-17T19:15:39.437Z,78.94
2023-04-17T19:18:08.922Z,79.25
2023-04-17T19:20:39.326Z,78.05
2023-04-17T19:23:07.507Z,79.15
2023-04-17T19:25:35.461Z,79.79
2023-04-17T19:28:03.461Z,79.43
2023-04-17T19:30:31.420Z,79.40
2023-04-17T19:32:59.397Z,78.68
2023-04-17T19:35:27.367Z,78.26
2023-04-17T19:37:56.838Z,78.71
2023-04-17T19:40:25.995Z,78.82
2023-04-17T19:42:56.296Z,79.51
2023-04-17T19:45:24.544Z,79.20
2023-04-17T19:47:56.896Z,79.27
2023-04-17T19:50:27.377Z,78.96
2023-04-17T19:52:58.508Z,79.46
2023-04-17T19:55:26.956Z,78.55
2023-04-17T19:57:57.317Z,78.96
2023-04-17T20:00:26.353Z,78.71
2023-04-17T20:02:54.879Z,79.29
2023-04-17T20:05:24.045Z,79.73
2023-04-17T20:07:52.438Z,79.74
2023-04-17T20:10:27.972Z,79.75
2023-04-17T20:12:56.239Z,80.71
2023-04-17T20:15:25.340Z,80.66
2023-04-17T20:17:54.357Z,80.03
2023-04-17T20:20:22.970Z,80.42
2023-04-17T20:22:51.201Z,79.73
2023-04-17T20:25:19.571Z,79.43
2023-04-17T20:27:49.453Z,78.89
2023-04-17T20:30:17.593Z,78.87
2023-04-17T20:32:47.995Z,79.02
2023-04-17T20:35:17.052Z,79.23
2023-04-17T20:37:47.969Z,79.55
2023-04-17T20:40:16.298Z,78.52
2023-04-17T20:42:49.345Z,78.18
2023-04-17T20:45:17.668Z,78.96
2023-04-17T20:47:56.499Z,79.72
2023-04-17T20:50:25.782Z,80.04
2023-04-17T20:52:54.014Z,80.58
2023-04-17T20:55:22.264Z,80.02
2023-04-17T20:57:52.108Z,79.88
2023-04-17T21:00:21.219Z,79.87
2023-04-17T21:02:50.600Z,80.97
2023-04-17T21:05:19.232Z,79.89
2023-04-17T21:07:48.544Z,80.36
2023-04-17T21:10:19.929Z,80.39
2023-04-17T21:12:48.435Z,81.31
2023-04-17T21:15:17.968Z,80.89
2023-04-17T21:17:49.957Z,80.75
2023-04-17T21:20:19.674Z,80.82
2023-04-17T21:22:47.691Z,81.96
2023-04-17T21:25:15.816Z,81.42
2023-04-17T21:27:44.023Z,81.34
2023-04-17T21:30:12.568Z,81.71
2023-04-17T21:32:42.554Z,81.73
2023-04-17T21:35:13.013Z,82.18
2023-04-17T21:37:41.015Z,81.70
2023-04-17T21:40:11.152Z,81.68
2023-04-17T21:42:39.162Z,81.08
2023-04-17T21:45:08.406Z,80.03
2023-04-17T21:47:37.051Z,80.49
2023-04-17T21:50:07.798Z,78.52
2023-04-17T21:52:39.039Z,77.93
2023-04-17T21:55:07.954Z,79.23
2023-04-17T21:57:36.224Z,79.60
2023-04-17T22:00:05.656Z,79.94
2023-04-17T22:02:34.920Z,80.67
2023-04-17T22:05:03.059Z,80.61
2023-04-17T22:07:36.044Z,80.39
2023-04-17T22:10:10.823Z,80.85
2023-04-17T22:12:38.904Z,80.21
2023-04-17T22:15:07.796Z,80.50
2023-04-17T22:17:38.206Z,80.05
2023-04-17T22:20:07.642Z,79.81
2023-04-17T22:22:37.435Z,79.26
2023-04-17T22:25:06.997Z,79.54
2023-04-17T22:27:35.495Z,79.73
2023-04-17T22:30:03.878Z,79.59
2023-04-17T22:32:32.119Z,79.99
2023-04-17T22:35:00.385Z,79.47
2023-04-17T22:37:28.379Z,80.00
2023-04-17T22:40:00.121Z,80.57
2023-04-17T22:42:28.299Z,80.14
2023-04-17T22:44:56.325Z,81.05
2023-04-17T22:47:24.352Z,81.18
2023-04-17T22:49:52.569Z,79.53
2023-04-17T22:52:20.691Z,79.64
2023-04-17T22:54:48.861Z,79.80
2023-04-17T22:57:18.391Z,79.01
2023-04-17T22:59:46.401Z,79.23
2023-04-17T23:02:14.575Z,79.29
2023-04-17T23:04:42.739Z,81.06
2023-04-17T23:07:10.905Z,80.08
2023-04-17T23:09:39.164Z,79.98
2023-04-17T23:12:08.185Z,80.49
2023-04-17T23:14:37.832Z,80.00
2023-04-17T23:17:06.530Z,79.61
2023-04-17T23:19:34.459Z,80.55
2023-04-17T23:22:02.695Z,80.84
2023-04-17T23:24:33.989Z,79.88
2023-04-17T23:27:02.546Z,80.36
2023-04-17T23:29:30.750Z,80.28
2023-04-17T23:32:00.510Z,79.88
2023-04-17T23:34:28.555Z,80.10
2023-04-17T23:36:56.487Z,80.14
2023-04-17T23:39:27.505Z,78.77
2023-04-17T23:42:00.592Z,78.75
2023-04-17T23:44:28.798Z,77.81
2023-04-17T23:46:57.269Z,78.54
2023-04-17T23:49:28.019Z,79.76
2023-04-17T23:51:56.330Z,79.27
2023-04-17T23:54:24.645Z,79.97
2023-04-17T23:56:53.567Z,80.94
2023-04-17T23:59:21.683Z,80.22
